sensor_id;sensor_type;location;lat;lon;timestamp;temperature;humidity
41344;DHT22;27089;50.022;7.604;2023-04-03T00:01:00;3.10;99.90
41344;DHT22;27089;50.022;7.604;2023-04-03T00:03:28;3.10;99.90
41344;DHT22;27089;50.022;7.604;2023-04-03T00:05:56;3.10;99.90
41344;DHT22;27089;50.022;7.604;2023-04-03T00:08:23;3.10;99.90
41344;DHT22;27089;50.022;7.604;2023-04-03T00:10:50;3.10;99.90
41344;DHT22;27089;50.022;7.604;2023-04-03T00:13:18;3.10;99.90
41344;DHT22;27089;50.022;7.604;2023-04-03T00:15:45;3.20;99.90
41344;DHT22;27089;50.022;7.604;2023-04-03T00:18:12;3.10;99.90
41344;DHT22;27089;50.022;7.604;2023-04-03T00:20:39;3.20;99.90
41344;DHT22;27089;50.022;7.604;2023-04-03T00:23:07;3.20;99.90
41344;DHT22;27089;50.022;7.604;2023-04-03T00:25:34;3.20;99.90
41344;DHT22;27089;50.022;7.604;2023-04-03T00:28:02;3.20;99.90
41344;DHT22;27089;50.022;7.604;2023-04-03T00:30:29;3.20;99.90
41344;DHT22;27089;50.022;7.604;2023-04-03T00:32:56;3.10;99.90
41344;DHT22;27089;50.022;7.604;2023-04-03T00:35:24;3.10;99.90
41344;DHT22;27089;50.022;7.604;2023-04-03T00:37:51;3.10;99.90
41344;DHT22;27089;50.022;7.604;2023-04-03T00:40:21;3.10;99.90
41344;DHT22;27089;50.022;7.604;2023-04-03T00:42:52;3.10;99.90
41344;DHT22;27089;50.022;7.604;2023-04-03T00:45:32;3.10;99.90
41344;DHT22;27089;50.022;7.604;2023-04-03T00:48:01;3.10;99.90
41344;DHT22;27089;50.022;7.604;2023-04-03T00:50:31;3.10;99.90
41344;DHT22;27089;50.022;7.604;2023-04-03T00:52:59;3.10;99.90
41344;DHT22;27089;50.022;7.604;2023-04-03T00:55:27;3.10;99.90
41344;DHT22;27089;50.022;7.604;2023-04-03T00:57:56;3.10;99.90
41344;DHT22;27089;50.022;7.604;2023-04-03T01:00:23;3.10;99.90
41344;DHT22;27089;50.022;7.604;2023-04-03T01:02:52;3.10;99.90
41344;DHT22;27089;50.022;7.604;2023-04-03T01:05:20;3.10;99.90
41344;DHT22;27089;50.022;7.604;2023-04-03T01:07:48;3.10;99.90
41344;DHT22;27089;50.022;7.604;2023-04-03T01:10:17;3.10;99.90
41344;DHT22;27089;50.022;7.604;2023-04-03T01:12:48;3.10;99.90
41344;DHT22;27089;50.022;7.604;2023-04-03T01:15:18;3.10;99.90
41344;DHT22;27089;50.022;7.604;2023-04-03T01:17:47;3.10;99.90
41344;DHT22;27089;50.022;7.604;2023-04-03T01:23:30;3.00;99.90
41344;DHT22;27089;50.022;7.604;2023-04-03T01:25:59;3.00;99.90
41344;DHT22;27089;50.022;7.604;2023-04-03T01:28:29;3.10;99.90
41344;DHT22;27089;50.022;7.604;2023-04-03T01:31:02;3.10;99.90
41344;DHT22;27089;50.022;7.604;2023-04-03T01:33:34;3.10;99.90
41344;DHT22;27089;50.022;7.604;2023-04-03T01:36:01;3.00;99.90
41344;DHT22;27089;50.022;7.604;2023-04-03T01:38:28;3.00;99.90
41344;DHT22;27089;50.022;7.604;2023-04-03T01:40:55;3.00;99.90
41344;DHT22;27089;50.022;7.604;2023-04-03T01:43:22;3.00;99.90
41344;DHT22;27089;50.022;7.604;2023-04-03T01:45:49;3.00;99.90
41344;DHT22;27089;50.022;7.604;2023-04-03T01:48:18;3.00;99.90
41344;DHT22;27089;50.022;7.604;2023-04-03T01:50:46;3.00;99.90
41344;DHT22;27089;50.022;7.604;2023-04-03T01:53:14;3.00;99.90
41344;DHT22;27089;50.022;7.604;2023-04-03T01:55:41;3.00;99.90
41344;DHT22;27089;50.022;7.604;2023-04-03T01:58:08;3.00;99.90
41344;DHT22;27089;50.022;7.604;2023-04-03T02:00:35;3.00;99.90
41344;DHT22;27089;50.022;7.604;2023-04-03T02:03:02;3.00;99.90
41344;DHT22;27089;50.022;7.604;2023-04-03T02:05:29;3.00;99.90
41344;DHT22;27089;50.022;7.604;2023-04-03T02:07:57;3.00;99.90
41344;DHT22;27089;50.022;7.604;2023-04-03T02:10:24;2.90;99.90
41344;DHT22;27089;50.022;7.604;2023-04-03T02:12:51;2.90;99.90
41344;DHT22;27089;50.022;7.604;2023-04-03T02:15:18;2.90;99.90
41344;DHT22;27089;50.022;7.604;2023-04-03T02:17:45;2.90;99.90
41344;DHT22;27089;50.022;7.604;2023-04-03T02:20:12;2.90;99.90
41344;DHT22;27089;50.022;7.604;2023-04-03T02:22:39;3.00;99.90
41344;DHT22;27089;50.022;7.604;2023-04-03T02:25:08;3.00;99.90
41344;DHT22;27089;50.022;7.604;2023-04-03T02:27:35;3.00;99.90
41344;DHT22;27089;50.022;7.604;2023-04-03T02:30:03;2.90;99.90
41344;DHT22;27089;50.022;7.604;2023-04-03T02:32:30;2.90;99.90
41344;DHT22;27089;50.022;7.604;2023-04-03T02:34:57;2.90;99.90
41344;DHT22;27089;50.022;7.604;2023-04-03T02:37:24;2.90;99.90
41344;DHT22;27089;50.022;7.604;2023-04-03T02:39:51;2.80;99.90
41344;DHT22;27089;50.022;7.604;2023-04-03T02:42:20;2.80;99.90
41344;DHT22;27089;50.022;7.604;2023-04-03T02:44:46;2.80;99.90
41344;DHT22;27089;50.022;7.604;2023-04-03T02:47:13;2.80;99.90
41344;DHT22;27089;50.022;7.604;2023-04-03T02:49:41;2.70;99.90
41344;DHT22;27089;50.022;7.604;2023-04-03T02:52:09;2.70;99.90
41344;DHT22;27089;50.022;7.604;2023-04-03T02:54:36;2.70;99.90
41344;DHT22;27089;50.022;7.604;2023-04-03T02:57:03;2.70;99.90
41344;DHT22;27089;50.022;7.604;2023-04-03T02:59:31;2.70;99.90
41344;DHT22;27089;50.022;7.604;2023-04-03T03:01:58;2.60;99.90
41344;DHT22;27089;50.022;7.604;2023-04-03T03:04:25;2.70;99.90
41344;DHT22;27089;50.022;7.604;2023-04-03T03:06:52;2.70;99.90
41344;DHT22;27089;50.022;7.604;2023-04-03T03:09:19;2.70;99.90
41344;DHT22;27089;50.022;7.604;2023-04-03T03:11:46;2.70;99.90
41344;DHT22;27089;50.022;7.604;2023-04-03T03:14:13;2.70;99.90
41344;DHT22;27089;50.022;7.604;2023-04-03T03:16:41;2.70;99.90
41344;DHT22;27089;50.022;7.604;2023-04-03T03:19:08;2.70;99.90
41344;DHT22;27089;50.022;7.604;2023-04-03T03:21:35;2.70;99.90
41344;DHT22;27089;50.022;7.604;2023-04-03T03:24:03;2.70;99.90
41344;DHT22;27089;50.022;7.604;2023-04-03T03:26:30;2.70;99.90
41344;DHT22;27089;50.022;7.604;2023-04-03T03:28:57;2.70;99.90
41344;DHT22;27089;50.022;7.604;2023-04-03T03:31:23;2.70;99.90
41344;DHT22;27089;50.022;7.604;2023-04-03T03:33:52;2.70;99.90
41344;DHT22;27089;50.022;7.604;2023-04-03T03:36:19;2.70;99.90
41344;DHT22;27089;50.022;7.604;2023-04-03T03:38:46;2.70;99.90
41344;DHT22;27089;50.022;7.604;2023-04-03T03:41:13;2.70;99.90
41344;DHT22;27089;50.022;7.604;2023-04-03T03:43:39;2.70;99.90
41344;DHT22;27089;50.022;7.604;2023-04-03T03:46:06;2.70;99.90
41344;DHT22;27089;50.022;7.604;2023-04-03T03:48:33;2.60;99.90
41344;DHT22;27089;50.022;7.604;2023-04-03T03:51:02;2.60;99.90
41344;DHT22;27089;50.022;7.604;2023-04-03T03:53:29;2.50;99.90
41344;DHT22;27089;50.022;7.604;2023-04-03T03:55:56;2.50;99.90
41344;DHT22;27089;50.022;7.604;2023-04-03T03:58:23;2.40;99.90
41344;DHT22;27089;50.022;7.604;2023-04-03T04:00:50;2.30;99.90
41344;DHT22;27089;50.022;7.604;2023-04-03T04:03:17;2.30;99.90
41344;DHT22;27089;50.022;7.604;2023-04-03T04:05:44;2.30;99.90
41344;DHT22;27089;50.022;7.604;2023-04-03T04:08:12;2.30;99.90
41344;DHT22;27089;50.022;7.604;2023-04-03T04:10:39;2.30;99.90
41344;DHT22;27089;50.022;7.604;2023-04-03T04:13:06;2.30;99.90
41344;DHT22;27089;50.022;7.604;2023-04-03T04:15:33;2.30;99.90
41344;DHT22;27089;50.022;7.604;2023-04-03T04:18:00;2.30;99.90
41344;DHT22;27089;50.022;7.604;2023-04-03T04:20:27;2.30;99.90
41344;DHT22;27089;50.022;7.604;2023-04-03T04:22:54;2.30;99.90
41344;DHT22;27089;50.022;7.604;2023-04-03T04:25:22;2.30;99.90
41344;DHT22;27089;50.022;7.604;2023-04-03T04:27:49;2.30;99.90
41344;DHT22;27089;50.022;7.604;2023-04-03T04:30:16;2.30;99.90
41344;DHT22;27089;50.022;7.604;2023-04-03T04:32:43;2.30;99.90
41344;DHT22;27089;50.022;7.604;2023-04-03T04:35:10;2.30;99.90
41344;DHT22;27089;50.022;7.604;2023-04-03T04:37:37;2.30;99.90
41344;DHT22;27089;50.022;7.604;2023-04-03T04:40:05;2.30;99.90
41344;DHT22;27089;50.022;7.604;2023-04-03T04:42:33;2.30;99.90
41344;DHT22;27089;50.022;7.604;2023-04-03T04:45:00;2.30;99.90
41344;DHT22;27089;50.022;7.604;2023-04-03T04:47:28;2.30;99.90
41344;DHT22;27089;50.022;7.604;2023-04-03T04:49:55;2.20;99.90
41344;DHT22;27089;50.022;7.604;2023-04-03T04:52:22;2.20;99.90
41344;DHT22;27089;50.022;7.604;2023-04-03T04:54:49;2.20;99.90
41344;DHT22;27089;50.022;7.604;2023-04-03T04:57:16;2.20;99.90
41344;DHT22;27089;50.022;7.604;2023-04-03T04:59:44;2.20;99.90
41344;DHT22;27089;50.022;7.604;2023-04-03T05:02:11;2.20;99.90
41344;DHT22;27089;50.022;7.604;2023-04-03T05:04:38;2.10;99.90
41344;DHT22;27089;50.022;7.604;2023-04-03T05:07:05;2.10;99.90
41344;DHT22;27089;50.022;7.604;2023-04-03T05:09:32;2.10;99.90
41344;DHT22;27089;50.022;7.604;2023-04-03T05:11:59;2.20;99.90
41344;DHT22;27089;50.022;7.604;2023-04-03T05:14:25;2.20;99.90
41344;DHT22;27089;50.022;7.604;2023-04-03T05:16:54;2.20;99.90
41344;DHT22;27089;50.022;7.604;2023-04-03T05:19:21;2.20;99.90
41344;DHT22;27089;50.022;7.604;2023-04-03T05:21:48;2.30;99.90
41344;DHT22;27089;50.022;7.604;2023-04-03T05:24:15;2.40;99.90
41344;DHT22;27089;50.022;7.604;2023-04-03T05:26:43;2.40;99.90
41344;DHT22;27089;50.022;7.604;2023-04-03T05:29:10;2.40;99.90
41344;DHT22;27089;50.022;7.604;2023-04-03T05:31:37;2.40;99.90
41344;DHT22;27089;50.022;7.604;2023-04-03T05:34:05;2.40;99.90
41344;DHT22;27089;50.022;7.604;2023-04-03T05:36:32;2.40;99.90
41344;DHT22;27089;50.022;7.604;2023-04-03T05:38:59;2.30;99.90
41344;DHT22;27089;50.022;7.604;2023-04-03T05:41:26;2.30;99.90
41344;DHT22;27089;50.022;7.604;2023-04-03T05:43:53;2.30;99.90
41344;DHT22;27089;50.022;7.604;2023-04-03T05:46:20;2.20;99.90
41344;DHT22;27089;50.022;7.604;2023-04-03T05:48:47;2.20;99.90
41344;DHT22;27089;50.022;7.604;2023-04-03T05:51:18;2.30;99.90
41344;DHT22;27089;50.022;7.604;2023-04-03T05:53:46;2.30;99.90
41344;DHT22;27089;50.022;7.604;2023-04-03T05:56:14;2.40;99.90
41344;DHT22;27089;50.022;7.604;2023-04-03T05:58:41;2.40;99.90
41344;DHT22;27089;50.022;7.604;2023-04-03T06:01:08;2.50;99.90
41344;DHT22;27089;50.022;7.604;2023-04-03T06:03:35;2.50;99.90
41344;DHT22;27089;50.022;7.604;2023-04-03T06:06:04;2.70;99.90
41344;DHT22;27089;50.022;7.604;2023-04-03T06:08:33;4.30;99.90
41344;DHT22;27089;50.022;7.604;2023-04-03T06:11:00;4.30;99.90
41344;DHT22;27089;50.022;7.604;2023-04-03T06:13:28;4.30;99.90
41344;DHT22;27089;50.022;7.604;2023-04-03T06:15:55;5.10;99.90
41344;DHT22;27089;50.022;7.604;2023-04-03T06:18:22;7.30;99.90
41344;DHT22;27089;50.022;7.604;2023-04-03T06:20:49;7.80;99.90
41344;DHT22;27089;50.022;7.604;2023-04-03T06:23:17;8.00;99.90
41344;DHT22;27089;50.022;7.604;2023-04-03T06:25:45;8.30;99.90
41344;DHT22;27089;50.022;7.604;2023-04-03T06:28:12;8.30;99.90
41344;DHT22;27089;50.022;7.604;2023-04-03T06:30:39;9.00;99.90
41344;DHT22;27089;50.022;7.604;2023-04-03T06:33:06;9.90;99.90
41344;DHT22;27089;50.022;7.604;2023-04-03T06:35:33;10.40;99.90
41344;DHT22;27089;50.022;7.604;2023-04-03T06:38:01;10.20;99.90
41344;DHT22;27089;50.022;7.604;2023-04-03T06:40:29;8.30;99.90
41344;DHT22;27089;50.022;7.604;2023-04-03T06:42:58;8.90;99.90
41344;DHT22;27089;50.022;7.604;2023-04-03T06:45:25;8.70;99.90
41344;DHT22;27089;50.022;7.604;2023-04-03T06:47:53;7.10;99.90
41344;DHT22;27089;50.022;7.604;2023-04-03T06:50:20;9.10;99.90
41344;DHT22;27089;50.022;7.604;2023-04-03T06:52:47;10.80;99.90
41344;DHT22;27089;50.022;7.604;2023-04-03T06:55:14;10.50;99.90
41344;DHT22;27089;50.022;7.604;2023-04-03T06:57:41;10.00;99.90
41344;DHT22;27089;50.022;7.604;2023-04-03T07:00:11;11.20;99.90
41344;DHT22;27089;50.022;7.604;2023-04-03T07:02:38;11.70;99.90
41344;DHT22;27089;50.022;7.604;2023-04-03T07:05:06;12.70;99.90
41344;DHT22;27089;50.022;7.604;2023-04-03T07:07:34;11.00;99.90
41344;DHT22;27089;50.022;7.604;2023-04-03T07:10:01;9.20;99.90
41344;DHT22;27089;50.022;7.604;2023-04-03T07:12:28;8.30;99.90
41344;DHT22;27089;50.022;7.604;2023-04-03T07:14:55;8.90;99.90
41344;DHT22;27089;50.022;7.604;2023-04-03T07:17:24;9.40;99.90
41344;DHT22;27089;50.022;7.604;2023-04-03T07:19:52;8.20;99.90
41344;DHT22;27089;50.022;7.604;2023-04-03T07:22:19;7.90;99.90
41344;DHT22;27089;50.022;7.604;2023-04-03T07:24:46;9.20;99.90
41344;DHT22;27089;50.022;7.604;2023-04-03T07:27:13;10.30;99.90
41344;DHT22;27089;50.022;7.604;2023-04-03T07:29:40;11.20;99.90
41344;DHT22;27089;50.022;7.604;2023-04-03T07:32:08;10.10;99.90
41344;DHT22;27089;50.022;7.604;2023-04-03T07:34:36;9.50;99.90
41344;DHT22;27089;50.022;7.604;2023-04-03T07:37:03;10.60;99.90
41344;DHT22;27089;50.022;7.604;2023-04-03T07:39:32;11.90;99.90
41344;DHT22;27089;50.022;7.604;2023-04-03T07:41:59;12.50;99.90
41344;DHT22;27089;50.022;7.604;2023-04-03T07:44:26;13.10;99.90
41344;DHT22;27089;50.022;7.604;2023-04-03T07:46:53;13.90;99.90
41344;DHT22;27089;50.022;7.604;2023-04-03T07:49:21;13.30;99.50
41344;DHT22;27089;50.022;7.604;2023-04-03T07:51:50;13.60;99.90
41344;DHT22;27089;50.022;7.604;2023-04-03T07:54:18;12.20;99.90
41344;DHT22;27089;50.022;7.604;2023-04-03T07:56:45;13.60;99.90
41344;DHT22;27089;50.022;7.604;2023-04-03T07:59:12;13.20;99.90
41344;DHT22;27089;50.022;7.604;2023-04-03T08:01:39;13.80;98.70
41344;DHT22;27089;50.022;7.604;2023-04-03T08:04:06;13.70;97.80
41344;DHT22;27089;50.022;7.604;2023-04-03T08:06:33;14.50;97.50
41344;DHT22;27089;50.022;7.604;2023-04-03T08:09:04;13.60;95.90
41344;DHT22;27089;50.022;7.604;2023-04-03T08:11:31;14.00;95.80
41344;DHT22;27089;50.022;7.604;2023-04-03T08:13:59;15.60;94.70
41344;DHT22;27089;50.022;7.604;2023-04-03T08:16:25;14.20;93.70
41344;DHT22;27089;50.022;7.604;2023-04-03T08:18:54;12.00;99.40
41344;DHT22;27089;50.022;7.604;2023-04-03T08:21:21;11.40;99.90
41344;DHT22;27089;50.022;7.604;2023-04-03T08:23:49;11.70;99.90
41344;DHT22;27089;50.022;7.604;2023-04-03T08:26:20;11.80;99.90
41344;DHT22;27089;50.022;7.604;2023-04-03T08:28:48;11.40;99.90
41344;DHT22;27089;50.022;7.604;2023-04-03T08:31:17;10.20;99.90
41344;DHT22;27089;50.022;7.604;2023-04-03T08:33:45;9.40;99.90
41344;DHT22;27089;50.022;7.604;2023-04-03T08:36:18;11.90;99.90
41344;DHT22;27089;50.022;7.604;2023-04-03T08:38:46;10.10;99.90
41344;DHT22;27089;50.022;7.604;2023-04-03T08:41:16;10.10;99.90
41344;DHT22;27089;50.022;7.604;2023-04-03T08:43:56;8.70;99.90
41344;DHT22;27089;50.022;7.604;2023-04-03T08:46:33;8.50;99.90
41344;DHT22;27089;50.022;7.604;2023-04-03T08:49:02;7.60;99.90
41344;DHT22;27089;50.022;7.604;2023-04-03T08:51:31;7.30;99.90
41344;DHT22;27089;50.022;7.604;2023-04-03T08:54:02;7.50;99.90
41344;DHT22;27089;50.022;7.604;2023-04-03T08:56:33;8.30;99.90
41344;DHT22;27089;50.022;7.604;2023-04-03T08:59:06;8.00;99.90
41344;DHT22;27089;50.022;7.604;2023-04-03T09:01:39;7.30;99.90
41344;DHT22;27089;50.022;7.604;2023-04-03T09:04:11;7.10;99.90
41344;DHT22;27089;50.022;7.604;2023-04-03T09:06:39;6.30;99.90
41344;DHT22;27089;50.022;7.604;2023-04-03T09:09:14;6.40;99.90
41344;DHT22;27089;50.022;7.604;2023-04-03T09:11:48;7.00;99.90
41344;DHT22;27089;50.022;7.604;2023-04-03T09:14:24;6.80;99.90
41344;DHT22;27089;50.022;7.604;2023-04-03T09:16:55;8.00;99.90
41344;DHT22;27089;50.022;7.604;2023-04-03T09:19:32;8.70;99.90
41344;DHT22;27089;50.022;7.604;2023-04-03T09:22:07;8.30;99.90
41344;DHT22;27089;50.022;7.604;2023-04-03T09:24:38;7.40;99.90
41344;DHT22;27089;50.022;7.604;2023-04-03T09:27:09;8.00;99.90
41344;DHT22;27089;50.022;7.604;2023-04-03T09:29:39;8.10;99.90
41344;DHT22;27089;50.022;7.604;2023-04-03T09:32:19;8.10;99.90
41344;DHT22;27089;50.022;7.604;2023-04-03T09:34:48;7.90;99.90
41344;DHT22;27089;50.022;7.604;2023-04-03T09:37:35;7.40;99.90
41344;DHT22;27089;50.022;7.604;2023-04-03T09:40:03;7.00;99.90
41344;DHT22;27089;50.022;7.604;2023-04-03T09:42:31;6.90;99.90
41344;DHT22;27089;50.022;7.604;2023-04-03T09:45:02;6.50;99.90
41344;DHT22;27089;50.022;7.604;2023-04-03T09:47:30;7.20;99.90
41344;DHT22;27089;50.022;7.604;2023-04-03T09:50:18;7.60;99.90
41344;DHT22;27089;50.022;7.604;2023-04-03T09:52:47;7.90;99.90
41344;DHT22;27089;50.022;7.604;2023-04-03T09:55:16;8.60;99.90
41344;DHT22;27089;50.022;7.604;2023-04-03T09:57:44;9.30;99.90
41344;DHT22;27089;50.022;7.604;2023-04-03T10:00:22;8.50;99.90
41344;DHT22;27089;50.022;7.604;2023-04-03T10:02:51;7.20;99.90
41344;DHT22;27089;50.022;7.604;2023-04-03T10:05:32;6.50;99.90
41344;DHT22;27089;50.022;7.604;2023-04-03T10:08:08;6.70;99.90
41344;DHT22;27089;50.022;7.604;2023-04-03T10:10:35;7.00;99.90
41344;DHT22;27089;50.022;7.604;2023-04-03T10:13:09;7.00;99.90
41344;DHT22;27089;50.022;7.604;2023-04-03T10:15:41;6.80;99.90
41344;DHT22;27089;50.022;7.604;2023-04-03T10:18:21;7.20;99.90
41344;DHT22;27089;50.022;7.604;2023-04-03T10:20:55;7.70;99.90
41344;DHT22;27089;50.022;7.604;2023-04-03T10:23:28;7.10;99.90
41344;DHT22;27089;50.022;7.604;2023-04-03T10:26:07;6.60;99.90
41344;DHT22;27089;50.022;7.604;2023-04-03T10:28:43;6.20;99.90
41344;DHT22;27089;50.022;7.604;2023-04-03T10:31:17;6.00;99.90
41344;DHT22;27089;50.022;7.604;2023-04-03T10:33:53;6.60;99.90
41344;DHT22;27089;50.022;7.604;2023-04-03T10:36:33;7.10;99.90
41344;DHT22;27089;50.022;7.604;2023-04-03T10:39:12;7.30;99.90
41344;DHT22;27089;50.022;7.604;2023-04-03T10:41:50;7.10;99.90
41344;DHT22;27089;50.022;7.604;2023-04-03T10:44:29;7.00;99.90
41344;DHT22;27089;50.022;7.604;2023-04-03T10:47:03;6.80;99.90
41344;DHT22;27089;50.022;7.604;2023-04-03T10:49:41;6.60;99.90
41344;DHT22;27089;50.022;7.604;2023-04-03T10:52:17;6.20;99.90
41344;DHT22;27089;50.022;7.604;2023-04-03T10:54:52;6.20;99.90
41344;DHT22;27089;50.022;7.604;2023-04-03T10:57:23;6.60;99.90
41344;DHT22;27089;50.022;7.604;2023-04-03T10:59:54;6.60;99.90
41344;DHT22;27089;50.022;7.604;2023-04-03T11:02:27;6.20;99.90
41344;DHT22;27089;50.022;7.604;2023-04-03T11:05:00;6.10;99.90
41344;DHT22;27089;50.022;7.604;2023-04-03T11:07:29;6.30;99.90
41344;DHT22;27089;50.022;7.604;2023-04-03T11:10:03;6.50;99.90
41344;DHT22;27089;50.022;7.604;2023-04-03T11:12:38;6.20;99.90
41344;DHT22;27089;50.022;7.604;2023-04-03T11:15:12;6.30;99.90
41344;DHT22;27089;50.022;7.604;2023-04-03T11:17:43;6.40;99.90
41344;DHT22;27089;50.022;7.604;2023-04-03T11:20:17;6.60;99.90
41344;DHT22;27089;50.022;7.604;2023-04-03T11:22:49;6.70;99.90
41344;DHT22;27089;50.022;7.604;2023-04-03T11:25:20;6.80;99.90
41344;DHT22;27089;50.022;7.604;2023-04-03T11:27:54;6.70;99.90
41344;DHT22;27089;50.022;7.604;2023-04-03T11:30:24;7.00;99.90
41344;DHT22;27089;50.022;7.604;2023-04-03T11:33:27;7.00;99.90
41344;DHT22;27089;50.022;7.604;2023-04-03T11:35:58;7.20;99.90
41344;DHT22;27089;50.022;7.604;2023-04-03T11:38:29;7.20;99.90
41344;DHT22;27089;50.022;7.604;2023-04-03T11:41:00;6.80;99.90
41344;DHT22;27089;50.022;7.604;2023-04-03T11:43:29;6.50;99.90
41344;DHT22;27089;50.022;7.604;2023-04-03T11:45:58;6.70;99.90
41344;DHT22;27089;50.022;7.604;2023-04-03T11:48:49;6.70;99.90
41344;DHT22;27089;50.022;7.604;2023-04-03T11:54:45;6.50;99.90
41344;DHT22;27089;50.022;7.604;2023-04-03T11:57:44;6.70;99.90
41344;DHT22;27089;50.022;7.604;2023-04-03T12:00:50;7.00;99.90
41344;DHT22;27089;50.022;7.604;2023-04-03T12:09:56;6.30;99.90
41344;DHT22;27089;50.022;7.604;2023-04-03T12:12:33;6.00;99.90
41344;DHT22;27089;50.022;7.604;2023-04-03T12:18:55;6.60;99.90
41344;DHT22;27089;50.022;7.604;2023-04-03T12:24:34;6.90;99.90
41344;DHT22;27089;50.022;7.604;2023-04-03T12:27:07;7.10;99.90
41344;DHT22;27089;50.022;7.604;2023-04-03T12:29:39;7.40;99.90
41344;DHT22;27089;50.022;7.604;2023-04-03T12:32:19;7.50;99.90
41344;DHT22;27089;50.022;7.604;2023-04-03T12:35:01;7.30;99.90
41344;DHT22;27089;50.022;7.604;2023-04-03T12:37:43;7.20;99.90
41344;DHT22;27089;50.022;7.604;2023-04-03T12:40:20;7.10;99.90
41344;DHT22;27089;50.022;7.604;2023-04-03T12:45:56;6.70;99.90
41344;DHT22;27089;50.022;7.604;2023-04-03T12:48:28;6.60;99.90
41344;DHT22;27089;50.022;7.604;2023-04-03T12:50:57;6.50;99.90
41344;DHT22;27089;50.022;7.604;2023-04-03T12:53:26;6.30;99.90
41344;DHT22;27089;50.022;7.604;2023-04-03T12:55:57;6.40;99.90
41344;DHT22;27089;50.022;7.604;2023-04-03T12:58:44;6.50;99.90
41344;DHT22;27089;50.022;7.604;2023-04-03T13:01:13;6.50;99.90
41344;DHT22;27089;50.022;7.604;2023-04-03T13:03:43;6.50;99.90
41344;DHT22;27089;50.022;7.604;2023-04-03T13:06:17;6.40;99.90
41344;DHT22;27089;50.022;7.604;2023-04-03T13:08:49;6.30;99.90
41344;DHT22;27089;50.022;7.604;2023-04-03T13:11:18;6.60;99.90
41344;DHT22;27089;50.022;7.604;2023-04-03T13:13:58;7.10;99.90
41344;DHT22;27089;50.022;7.604;2023-04-03T13:16:26;7.40;99.90
41344;DHT22;27089;50.022;7.604;2023-04-03T13:18:54;7.30;99.90
41344;DHT22;27089;50.022;7.604;2023-04-03T13:21:22;7.00;99.90
41344;DHT22;27089;50.022;7.604;2023-04-03T13:23:53;7.00;99.90
41344;DHT22;27089;50.022;7.604;2023-04-03T13:26:24;7.40;99.90
41344;DHT22;27089;50.022;7.604;2023-04-03T13:28:51;7.50;99.90
41344;DHT22;27089;50.022;7.604;2023-04-03T13:31:22;7.90;99.90
41344;DHT22;27089;50.022;7.604;2023-04-03T13:33:56;8.00;99.90
41344;DHT22;27089;50.022;7.604;2023-04-03T13:36:27;7.60;99.90
41344;DHT22;27089;50.022;7.604;2023-04-03T13:38:59;7.30;99.90
41344;DHT22;27089;50.022;7.604;2023-04-03T13:41:30;7.20;99.90
41344;DHT22;27089;50.022;7.604;2023-04-03T13:44:15;7.30;99.90
41344;DHT22;27089;50.022;7.604;2023-04-03T13:46:43;7.30;99.90
41344;DHT22;27089;50.022;7.604;2023-04-03T13:49:21;7.00;99.90
41344;DHT22;27089;50.022;7.604;2023-04-03T13:51:49;6.80;99.90
41344;DHT22;27089;50.022;7.604;2023-04-03T13:54:21;6.70;99.90
41344;DHT22;27089;50.022;7.604;2023-04-03T13:56:53;6.70;99.90
41344;DHT22;27089;50.022;7.604;2023-04-03T13:59:24;6.80;99.90
41344;DHT22;27089;50.022;7.604;2023-04-03T14:01:56;7.10;99.90
41344;DHT22;27089;50.022;7.604;2023-04-03T14:04:45;7.30;99.90
41344;DHT22;27089;50.022;7.604;2023-04-03T14:07:15;7.30;99.90
41344;DHT22;27089;50.022;7.604;2023-04-03T14:09:43;7.40;99.90
41344;DHT22;27089;50.022;7.604;2023-04-03T14:12:16;7.00;99.90
41344;DHT22;27089;50.022;7.604;2023-04-03T14:14:44;6.70;99.90
41344;DHT22;27089;50.022;7.604;2023-04-03T14:17:15;6.50;99.90
41344;DHT22;27089;50.022;7.604;2023-04-03T14:19:43;6.60;99.90
41344;DHT22;27089;50.022;7.604;2023-04-03T14:22:16;6.80;99.90
41344;DHT22;27089;50.022;7.604;2023-04-03T14:24:43;6.90;99.90
41344;DHT22;27089;50.022;7.604;2023-04-03T14:27:17;6.90;99.90
41344;DHT22;27089;50.022;7.604;2023-04-03T14:29:45;6.80;99.90
41344;DHT22;27089;50.022;7.604;2023-04-03T14:32:12;6.80;99.90
41344;DHT22;27089;50.022;7.604;2023-04-03T14:34:40;6.80;99.90
41344;DHT22;27089;50.022;7.604;2023-04-03T14:37:10;6.70;99.90
41344;DHT22;27089;50.022;7.604;2023-04-03T14:39:37;6.80;99.90
41344;DHT22;27089;50.022;7.604;2023-04-03T14:42:04;6.80;99.90
41344;DHT22;27089;50.022;7.604;2023-04-03T14:44:33;6.60;99.90
41344;DHT22;27089;50.022;7.604;2023-04-03T14:47:00;6.70;99.90
41344;DHT22;27089;50.022;7.604;2023-04-03T14:49:28;6.70;99.90
41344;DHT22;27089;50.022;7.604;2023-04-03T14:51:55;6.70;99.90
41344;DHT22;27089;50.022;7.604;2023-04-03T14:54:23;6.60;99.90
41344;DHT22;27089;50.022;7.604;2023-04-03T14:56:53;6.60;99.90
41344;DHT22;27089;50.022;7.604;2023-04-03T14:59:22;6.50;99.90
41344;DHT22;27089;50.022;7.604;2023-04-03T15:01:50;6.60;99.90
41344;DHT22;27089;50.022;7.604;2023-04-03T15:04:20;6.50;99.90
41344;DHT22;27089;50.022;7.604;2023-04-03T15:06:48;6.40;99.90
41344;DHT22;27089;50.022;7.604;2023-04-03T15:09:20;6.50;99.90
41344;DHT22;27089;50.022;7.604;2023-04-03T15:11:47;6.60;99.90
41344;DHT22;27089;50.022;7.604;2023-04-03T15:14:15;6.60;99.90
41344;DHT22;27089;50.022;7.604;2023-04-03T15:16:42;6.70;99.90
41344;DHT22;27089;50.022;7.604;2023-04-03T15:19:11;6.50;99.90
41344;DHT22;27089;50.022;7.604;2023-04-03T15:21:39;6.40;99.90
41344;DHT22;27089;50.022;7.604;2023-04-03T15:24:06;6.40;99.90
41344;DHT22;27089;50.022;7.604;2023-04-03T15:26:33;6.30;99.90
41344;DHT22;27089;50.022;7.604;2023-04-03T15:29:00;6.30;99.90
41344;DHT22;27089;50.022;7.604;2023-04-03T15:31:27;6.40;99.90
41344;DHT22;27089;50.022;7.604;2023-04-03T15:33:54;6.30;99.90
41344;DHT22;27089;50.022;7.604;2023-04-03T15:36:23;6.40;99.90
41344;DHT22;27089;50.022;7.604;2023-04-03T15:38:50;6.40;99.90
41344;DHT22;27089;50.022;7.604;2023-04-03T15:41:17;6.40;99.90
41344;DHT22;27089;50.022;7.604;2023-04-03T15:43:44;6.40;99.90
41344;DHT22;27089;50.022;7.604;2023-04-03T15:46:12;6.30;99.90
41344;DHT22;27089;50.022;7.604;2023-04-03T15:48:39;6.20;99.90
41344;DHT22;27089;50.022;7.604;2023-04-03T15:51:08;6.30;99.90
41344;DHT22;27089;50.022;7.604;2023-04-03T15:53:36;6.30;99.90
41344;DHT22;27089;50.022;7.604;2023-04-03T15:56:03;6.30;99.90
41344;DHT22;27089;50.022;7.604;2023-04-03T15:58:30;6.20;99.90
41344;DHT22;27089;50.022;7.604;2023-04-03T16:00:57;6.10;99.90
41344;DHT22;27089;50.022;7.604;2023-04-03T16:03:24;6.10;99.90
41344;DHT22;27089;50.022;7.604;2023-04-03T16:05:52;6.10;99.90
41344;DHT22;27089;50.022;7.604;2023-04-03T16:08:19;6.10;99.90
41344;DHT22;27089;50.022;7.604;2023-04-03T16:10:48;6.10;99.90
41344;DHT22;27089;50.022;7.604;2023-04-03T16:13:15;6.20;99.90
41344;DHT22;27089;50.022;7.604;2023-04-03T16:15:42;6.10;99.90
41344;DHT22;27089;50.022;7.604;2023-04-03T16:18:09;6.20;99.90
41344;DHT22;27089;50.022;7.604;2023-04-03T16:20:38;6.20;99.90
41344;DHT22;27089;50.022;7.604;2023-04-03T16:23:06;6.10;99.90